Time;durP1;ratioP1;P1;durP2;ratioP2;P2;SDS_P1;SDS_P2;PMS_P1;PMS_P2;Temp;Humidity;BMP_temperature;BMP_pressure;BME280_temperature;BME280_humidity;BME280_pressure;Samples;Min_cycle;Max_cycle;Signal;HPM_P1;HPM_P2
2021/11/26 00:01:41;;;;;;;31.17;8.18;;;;;;;;;;6242234;28;20519;-82
2021/11/26 00:04:49;;;;;;;26.02;9.48;;;;;;;;;;6215979;28;20056;-83
2021/11/26 00:07:50;;;;;;;31.38;11.48;;;;;;;;;;6207925;28;20045;-82
2021/11/26 00:10:52;;;;;;;24.70;9.70;;;;;;;;;;6204386;28;20054;-83
2021/11/26 00:14:06;;;;;;;23.98;9.77;;;;;;;;;;6207760;28;20087;-84
2021/11/26 00:17:15;;;;;;;30.50;10.05;;;;;;;;;;6192415;28;20050;-82
2021/11/26 00:20:17;;;;;;;27.50;9.65;;;;;;;;;;6174436;28;20407;-82
2021/11/26 00:23:19;;;;;;;26.75;10.23;;;;;;;;;;6210409;28;20043;-83
2021/11/26 00:26:21;;;;;;;23.55;10.65;;;;;;;;;;6214539;28;20369;-82
2021/11/26 00:29:25;;;;;;;30.15;11.25;;;;;;;;;;6206148;28;20053;-82
2021/11/26 00:32:27;;;;;;;30.83;11.10;;;;;;;;;;6221887;28;20551;-83
2021/11/26 00:35:29;;;;;;;23.20;9.75;;;;;;;;;;6198287;28;20056;-83
2021/11/26 00:38:31;;;;;;;21.92;9.07;;;;;;;;;;6201545;28;20499;-83
2021/11/26 00:41:34;;;;;;;25.65;9.95;;;;;;;;;;6190200;28;20058;-83
2021/11/26 00:44:35;;;;;;;27.33;10.65;;;;;;;;;;6217531;28;20057;-83
2021/11/26 00:47:42;;;;;;;23.58;9.35;;;;;;;;;;6190127;28;20046;-84
2021/11/26 00:50:45;;;;;;;25.75;9.77;;;;;;;;;;6202904;28;20126;-83
2021/11/26 00:53:47;;;;;;;27.25;10.23;;;;;;;;;;6195206;28;20117;-82
2021/11/26 00:56:49;;;;;;;19.67;9.07;;;;;;;;;;6193115;28;20658;-82
2021/11/26 00:59:58;;;;;;;24.95;9.70;;;;;;;;;;6194644;28;20061;-82
2021/11/26 01:03:00;;;;;;;26.02;9.70;;;;;;;;;;6194090;28;20049;-82
2021/11/26 01:06:02;;;;;;;26.80;10.85;;;;;;;;;;6206724;28;20038;-82
2021/11/26 01:09:04;;;;;;;25.00;9.68;;;;;;;;;;6212583;28;20046;-82
2021/11/26 01:12:06;;;;;;;28.55;10.82;;;;;;;;;;6204568;28;20096;-83
2021/11/26 01:15:11;;;;;;;26.88;10.70;;;;;;;;;;6233762;28;20128;-82
2021/11/26 01:18:13;;;;;;;23.90;10.30;;;;;;;;;;6215931;28;20041;-82
2021/11/26 01:21:23;;;;;;;27.65;10.10;;;;;;;;;;6202703;28;20035;-82
2021/11/26 01:24:25;;;;;;;25.67;10.95;;;;;;;;;;6206358;28;20038;-84
2021/11/26 01:27:27;;;;;;;24.02;10.27;;;;;;;;;;6200979;28;20044;-82
2021/11/26 01:30:36;;;;;;;29.08;11.10;;;;;;;;;;6217178;28;20124;-83
2021/11/26 01:33:38;;;;;;;28.42;10.18;;;;;;;;;;6216900;28;20423;-83
2021/11/26 01:36:46;;;;;;;25.73;10.50;;;;;;;;;;6194603;28;20049;-82
2021/11/26 01:39:50;;;;;;;29.83;12.60;;;;;;;;;;6207789;28;20102;-82
2021/11/26 01:42:54;;;;;;;25.63;11.05;;;;;;;;;;6228160;28;20055;-82
2021/11/26 01:46:08;;;;;;;29.85;11.32;;;;;;;;;;6220368;28;20120;-83
2021/11/26 01:49:11;;;;;;;28.73;11.27;;;;;;;;;;6209813;28;20038;-83
2021/11/26 01:52:13;;;;;;;28.40;10.40;;;;;;;;;;6200504;28;20497;-82
2021/11/26 01:55:20;;;;;;;23.52;9.45;;;;;;;;;;6226420;28;20041;-82
2021/11/26 01:58:22;;;;;;;26.88;10.63;;;;;;;;;;6215274;28;20052;-82
2021/11/26 02:01:25;;;;;;;27.10;10.95;;;;;;;;;;6206814;28;20038;-83
2021/11/26 02:04:27;;;;;;;27.55;10.77;;;;;;;;;;6208672;28;20053;-82
2021/11/26 02:07:28;;;;;;;24.20;9.90;;;;;;;;;;6208356;28;20101;-82
2021/11/26 02:10:30;;;;;;;31.10;12.10;;;;;;;;;;6218600;28;20042;-82
2021/11/26 02:13:33;;;;;;;29.48;9.82;;;;;;;;;;6208974;28;20174;-82
2021/11/26 02:16:46;;;;;;;28.60;10.10;;;;;;;;;;6201313;28;20042;-82
2021/11/26 02:20:01;;;;;;;24.60;8.93;;;;;;;;;;6207936;28;20042;-84
2021/11/26 02:23:04;;;;;;;25.63;9.52;;;;;;;;;;6208305;28;20204;-82
2021/11/26 02:26:06;;;;;;;21.65;9.00;;;;;;;;;;6223095;28;20050;-83
2021/11/26 02:29:13;;;;;;;29.23;10.32;;;;;;;;;;6187314;28;20042;-82
2021/11/26 02:32:15;;;;;;;31.63;11.00;;;;;;;;;;6208241;28;20049;-83
2021/11/26 02:35:18;;;;;;;31.75;12.35;;;;;;;;;;6216888;28;20132;-82
2021/11/26 02:38:25;;;;;;;32.25;11.70;;;;;;;;;;6223239;28;20046;-83
2021/11/26 02:41:27;;;;;;;33.28;11.27;;;;;;;;;;6199858;28;20125;-83
2021/11/26 02:44:29;;;;;;;30.13;10.40;;;;;;;;;;6198631;28;20116;-83
2021/11/26 02:47:30;;;;;;;27.33;9.85;;;;;;;;;;6223756;28;20046;-82
2021/11/26 02:50:33;;;;;;;32.75;11.35;;;;;;;;;;6220507;28;20059;-83
2021/11/26 02:53:34;;;;;;;26.17;10.00;;;;;;;;;;6222366;28;20038;-84
2021/11/26 02:56:36;;;;;;;24.63;9.65;;;;;;;;;;6222655;28;20049;-83
2021/11/26 02:59:38;;;;;;;28.70;10.75;;;;;;;;;;6213447;28;20042;-84
2021/11/26 03:02:40;;;;;;;23.35;9.25;;;;;;;;;;6219644;28;20073;-83
2021/11/26 03:05:42;;;;;;;28.48;9.73;;;;;;;;;;6201464;28;20125;-82
2021/11/26 03:08:44;;;;;;;24.13;10.40;;;;;;;;;;6206040;28;20137;-82
2021/11/26 03:11:45;;;;;;;31.67;9.52;;;;;;;;;;6221230;28;20133;-82
2021/11/26 03:14:47;;;;;;;30.65;10.57;;;;;;;;;;6220485;28;20061;-82
2021/11/26 03:17:49;;;;;;;27.90;10.43;;;;;;;;;;6222286;28;20060;-82
2021/11/26 03:20:51;;;;;;;27.07;10.87;;;;;;;;;;6219804;28;20037;-83
2021/11/26 03:23:53;;;;;;;24.98;9.30;;;;;;;;;;6204010;28;20130;-82
2021/11/26 03:26:55;;;;;;;27.27;8.95;;;;;;;;;;6218955;28;20828;-82
2021/11/26 03:29:56;;;;;;;26.88;9.27;;;;;;;;;;6215744;28;20048;-81
2021/11/26 03:32:58;;;;;;;30.05;9.93;;;;;;;;;;6222420;28;20042;-81
2021/11/26 03:36:00;;;;;;;26.80;10.45;;;;;;;;;;6218751;28;20041;-82
2021/11/26 03:39:03;;;;;;;24.95;9.63;;;;;;;;;;6221855;28;20061;-81
2021/11/26 03:42:05;;;;;;;28.30;10.95;;;;;;;;;;6218154;28;20097;-81
2021/11/26 03:45:08;;;;;;;24.38;9.55;;;;;;;;;;6209128;28;20046;-81
2021/11/26 03:48:10;;;;;;;26.90;10.50;;;;;;;;;;6197703;28;20768;-82
2021/11/26 03:51:12;;;;;;;23.05;9.27;;;;;;;;;;6216674;28;20478;-82
2021/11/26 03:54:13;;;;;;;27.63;10.30;;;;;;;;;;6207538;28;20046;-82
2021/11/26 03:57:15;;;;;;;26.65;10.95;;;;;;;;;;6198416;28;20042;-82
2021/11/26 04:00:18;;;;;;;29.75;11.38;;;;;;;;;;6210933;28;20125;-82
2021/11/26 04:03:19;;;;;;;26.15;10.52;;;;;;;;;;6219281;28;20073;-83
2021/11/26 04:06:21;;;;;;;29.60;10.25;;;;;;;;;;6216822;28;20048;-82
2021/11/26 04:09:22;;;;;;;33.90;11.32;;;;;;;;;;6219874;28;20184;-81
2021/11/26 04:12:24;;;;;;;31.30;10.73;;;;;;;;;;6212278;28;20129;-82
2021/11/26 04:15:26;;;;;;;28.85;11.18;;;;;;;;;;6217254;28;20084;-82
2021/11/26 04:18:33;;;;;;;28.70;10.82;;;;;;;;;;6219732;28;20123;-82
2021/11/26 04:21:35;;;;;;;34.17;11.40;;;;;;;;;;6218628;28;20121;-82
2021/11/26 04:24:36;;;;;;;33.63;10.48;;;;;;;;;;6203184;28;20414;-81
2021/11/26 04:27:38;;;;;;;34.13;11.65;;;;;;;;;;6217246;28;20185;-83
2021/11/26 04:30:40;;;;;;;30.50;10.30;;;;;;;;;;6210829;28;20045;-82
2021/11/26 04:33:42;;;;;;;35.92;11.38;;;;;;;;;;6219846;28;20487;-82
2021/11/26 04:36:44;;;;;;;35.63;11.27;;;;;;;;;;6210549;28;20173;-82
2021/11/26 04:39:45;;;;;;;33.33;11.68;;;;;;;;;;6214463;28;20109;-82
2021/11/26 04:42:47;;;;;;;33.55;11.23;;;;;;;;;;6185895;28;20057;-81
2021/11/26 04:45:51;;;;;;;45.05;15.02;;;;;;;;;;6177796;28;20052;-83
2021/11/26 04:48:53;;;;;;;48.58;14.77;;;;;;;;;;6219091;28;20046;-83
2021/11/26 04:51:55;;;;;;;35.50;12.18;;;;;;;;;;6216992;28;20428;-83
2021/11/26 04:54:56;;;;;;;39.65;12.93;;;;;;;;;;6204494;28;20048;-82
2021/11/26 04:57:58;;;;;;;32.72;11.35;;;;;;;;;;6207217;28;20034;-81
2021/11/26 05:01:00;;;;;;;40.00;13.82;;;;;;;;;;6219035;28;20522;-81
2021/11/26 05:04:02;;;;;;;29.27;11.35;;;;;;;;;;6242750;28;20119;-83
2021/11/26 05:07:03;;;;;;;28.65;10.40;;;;;;;;;;6222373;28;20113;-84
2021/11/26 05:10:07;;;;;;;27.13;11.40;;;;;;;;;;6233634;28;20049;-83
2021/11/26 05:13:09;;;;;;;30.92;11.60;;;;;;;;;;6213575;28;20515;-84
2021/11/26 05:16:13;;;;;;;32.42;12.20;;;;;;;;;;6219274;28;20042;-83
2021/11/26 05:19:16;;;;;;;33.75;10.93;;;;;;;;;;6217218;28;20042;-82
2021/11/26 05:22:17;;;;;;;31.00;11.07;;;;;;;;;;6212592;28;20050;-82
2021/11/26 05:25:19;;;;;;;35.53;12.77;;;;;;;;;;6220505;28;20576;-82
2021/11/26 05:28:22;;;;;;;32.78;12.05;;;;;;;;;;6213794;28;20675;-83
2021/11/26 05:31:23;;;;;;;31.33;12.15;;;;;;;;;;6192484;28;20038;-83
2021/11/26 05:34:25;;;;;;;35.22;13.45;;;;;;;;;;6213134;28;20050;-82
2021/11/26 05:37:27;;;;;;;32.72;13.15;;;;;;;;;;6216399;28;20042;-82
2021/11/26 05:40:28;;;;;;;39.35;13.75;;;;;;;;;;6210790;28;20048;-82
2021/11/26 05:43:30;;;;;;;38.45;13.90;;;;;;;;;;6219441;28;20065;-82
2021/11/26 05:46:32;;;;;;;35.85;14.30;;;;;;;;;;6212051;28;20049;-81
2021/11/26 05:49:33;;;;;;;42.65;14.13;;;;;;;;;;6196715;28;20038;-82
2021/11/26 05:52:36;;;;;;;38.90;15.02;;;;;;;;;;6214868;28;20045;-82
2021/11/26 05:55:37;;;;;;;44.47;16.02;;;;;;;;;;6216588;28;20046;-82
2021/11/26 05:58:39;;;;;;;40.65;15.20;;;;;;;;;;6213745;28;20052;-82
2021/11/26 06:01:41;;;;;;;38.55;14.68;;;;;;;;;;6227984;28;20046;-82
2021/11/26 06:04:43;;;;;;;38.78;14.65;;;;;;;;;;6198183;28;20042;-81
2021/11/26 06:07:45;;;;;;;32.67;12.83;;;;;;;;;;6194655;28;20046;-82
2021/11/26 06:10:47;;;;;;;44.38;14.90;;;;;;;;;;6206169;28;20047;-82
2021/11/26 06:13:49;;;;;;;39.25;14.65;;;;;;;;;;6204083;28;20536;-81
2021/11/26 06:16:50;;;;;;;41.60;15.07;;;;;;;;;;6202787;28;20053;-82
2021/11/26 06:19:52;;;;;;;42.70;15.45;;;;;;;;;;6215124;28;20072;-81
2021/11/26 06:22:54;;;;;;;36.22;14.27;;;;;;;;;;6223608;28;20041;-82
2021/11/26 06:25:56;;;;;;;35.38;14.25;;;;;;;;;;6222160;28;20048;-82
2021/11/26 06:29:00;;;;;;;37.85;13.63;;;;;;;;;;6189699;28;20082;-82
2021/11/26 06:32:02;;;;;;;34.10;13.23;;;;;;;;;;6220438;28;20056;-82
2021/11/26 06:35:04;;;;;;;36.75;14.13;;;;;;;;;;6221935;28;20044;-83
2021/11/26 06:38:06;;;;;;;32.90;13.35;;;;;;;;;;6220481;28;20053;-82
2021/11/26 06:41:08;;;;;;;34.28;12.63;;;;;;;;;;6218276;28;20123;-83
2021/11/26 06:44:11;;;;;;;31.40;13.38;;;;;;;;;;6212556;28;20046;-82
2021/11/26 06:47:13;;;;;;;34.58;12.43;;;;;;;;;;6220339;28;20503;-82
2021/11/26 06:50:17;;;;;;;36.17;13.25;;;;;;;;;;6218113;28;20400;-82
2021/11/26 06:53:21;;;;;;;35.97;11.98;;;;;;;;;;6212021;28;20049;-81
2021/11/26 06:56:24;;;;;;;30.17;12.15;;;;;;;;;;6205989;28;20045;-83
2021/11/26 06:59:25;;;;;;;33.80;12.38;;;;;;;;;;6203251;28;20085;-83
2021/11/26 07:02:27;;;;;;;35.80;13.90;;;;;;;;;;6220078;28;20121;-81
2021/11/26 07:05:29;;;;;;;29.50;12.13;;;;;;;;;;6214270;28;20128;-80
2021/11/26 07:08:31;;;;;;;37.65;11.90;;;;;;;;;;6209964;28;20037;-79
2021/11/26 07:11:32;;;;;;;29.83;12.07;;;;;;;;;;6194334;28;20053;-80
2021/11/26 07:14:34;;;;;;;28.30;9.77;;;;;;;;;;6212619;28;20049;-81
2021/11/26 07:17:36;;;;;;;28.20;12.00;;;;;;;;;;6217193;28;20041;-81
2021/11/26 07:20:40;;;;;;;33.72;11.90;;;;;;;;;;6206289;28;20144;-83
2021/11/26 07:23:41;;;;;;;;;;;;;;;;;;6206515;28;20111;-79
2021/11/26 07:26:43;;;;;;;25.70;10.80;;;;;;;;;;6190289;28;19921;-79
2021/11/26 07:29:45;;;;;;;31.42;10.77;;;;;;;;;;6217982;28;20139;-79
2021/11/26 07:32:47;;;;;;;29.02;12.27;;;;;;;;;;6191940;28;20051;-80
2021/11/26 07:35:49;;;;;;;26.27;11.40;;;;;;;;;;6192585;28;20208;-80
2021/11/26 07:38:50;;;;;;;31.15;10.68;;;;;;;;;;6228060;28;20045;-81
2021/11/26 07:41:52;;;;;;;28.42;11.68;;;;;;;;;;6192132;28;20053;-81
2021/11/26 07:44:54;;;;;;;29.05;11.70;;;;;;;;;;6216244;28;20046;-81
2021/11/26 07:47:55;;;;;;;26.45;11.05;;;;;;;;;;6216852;28;20048;-81
2021/11/26 07:50:57;;;;;;;27.17;11.55;;;;;;;;;;6208829;28;20565;-81
2021/11/26 07:53:59;;;;;;;28.73;10.93;;;;;;;;;;6218250;28;20096;-81
2021/11/26 07:57:01;;;;;;;26.23;10.55;;;;;;;;;;6191692;28;20093;-80
2021/11/26 08:00:07;;;;;;;27.00;10.32;;;;;;;;;;6205451;28;20124;-81
2021/11/26 08:03:14;;;;;;;26.08;10.55;;;;;;;;;;6194149;28;20231;-81
2021/11/26 08:06:36;;;;;;;23.77;9.90;;;;;;;;;;6211066;28;20129;-81
2021/11/26 08:09:38;;;;;;;26.50;10.60;;;;;;;;;;6206739;28;20503;-82
2021/11/26 08:12:41;;;;;;;26.38;9.68;;;;;;;;;;6199355;28;20053;-82
2021/11/26 08:15:42;;;;;;;25.83;10.93;;;;;;;;;;6207821;28;20142;-82
2021/11/26 08:18:45;;;;;;;25.60;9.23;;;;;;;;;;6192231;28;20531;-82
2021/11/26 08:21:47;;;;;;;29.00;10.20;;;;;;;;;;6189440;28;20415;-82
2021/11/26 08:24:49;;;;;;;27.08;10.13;;;;;;;;;;6216350;28;20388;-82
2021/11/26 08:27:52;;;;;;;26.40;9.57;;;;;;;;;;6213293;28;20072;-82
2021/11/26 08:30:55;;;;;;;;;;;;;;;;;;6214964;28;20050;-81
2021/11/26 08:33:57;;;;;;;27.30;10.38;;;;;;;;;;6217359;28;19927;-82
2021/11/26 08:36:58;;;;;;;25.55;10.02;;;;;;;;;;6214916;28;20052;-84
2021/11/26 08:40:02;;;;;;;27.02;9.63;;;;;;;;;;6212697;28;20418;-81
2021/11/26 08:43:04;;;;;;;23.88;9.30;;;;;;;;;;6207388;28;20050;-81
2021/11/26 08:46:05;;;;;;;23.98;9.00;;;;;;;;;;6192071;28;20455;-80
2021/11/26 08:49:07;;;;;;;21.35;9.55;;;;;;;;;;6213563;28;20057;-82
2021/11/26 08:52:10;;;;;;;24.63;9.07;;;;;;;;;;6214628;28;20057;-82
2021/11/26 08:55:16;;;;;;;24.85;8.85;;;;;;;;;;6215320;28;20081;-84
2021/11/26 08:58:21;;;;;;;18.92;8.48;;;;;;;;;;6208607;28;20110;-81
2021/11/26 09:01:22;;;;;;;18.02;8.30;;;;;;;;;;6197601;28;20046;-82
2021/11/26 09:04:25;;;;;;;21.15;9.80;;;;;;;;;;6216233;28;20510;-81
2021/11/26 09:07:27;;;;;;;16.23;8.43;;;;;;;;;;6201592;28;20057;-81
2021/11/26 09:10:35;;;;;;;20.95;8.68;;;;;;;;;;6192062;28;20053;-80
2021/11/26 09:13:37;;;;;;;21.23;8.85;;;;;;;;;;6198701;28;20041;-80
2021/11/26 09:16:38;;;;;;;20.67;9.30;;;;;;;;;;6205804;28;20522;-80
2021/11/26 09:19:40;;;;;;;21.15;8.95;;;;;;;;;;6197319;28;20041;-80
2021/11/26 09:22:42;;;;;;;19.60;8.40;;;;;;;;;;6197315;28;20046;-80
2021/11/26 09:25:44;;;;;;;17.77;7.45;;;;;;;;;;6213189;28;20470;-79
2021/11/26 09:28:46;;;;;;;18.17;7.05;;;;;;;;;;6208075;28;20050;-80
2021/11/26 09:31:47;;;;;;;19.05;8.13;;;;;;;;;;6204676;28;20058;-81
2021/11/26 09:34:50;;;;;;;19.10;7.55;;;;;;;;;;6207348;28;20053;-82
2021/11/26 09:37:53;;;;;;;21.95;8.18;;;;;;;;;;6193119;28;20869;-81
2021/11/26 09:40:55;;;;;;;22.90;9.55;;;;;;;;;;6184562;28;20125;-79
2021/11/26 09:44:00;;;;;;;19.35;7.03;;;;;;;;;;6197802;28;20049;-81
2021/11/26 09:47:02;;;;;;;14.52;7.38;;;;;;;;;;6199570;28;20109;-80
2021/11/26 09:50:05;;;;;;;18.67;7.97;;;;;;;;;;6208079;28;20530;-81
2021/11/26 09:53:20;;;;;;;16.25;6.78;;;;;;;;;;6200828;28;20078;-81
2021/11/26 09:56:23;;;;;;;14.10;6.32;;;;;;;;;;6210361;28;20042;-79
2021/11/26 09:59:25;;;;;;;17.85;6.15;;;;;;;;;;6192275;28;20078;-81
2021/11/26 10:02:26;;;;;;;16.60;6.78;;;;;;;;;;6191511;28;20046;-81
2021/11/26 10:05:34;;;;;;;13.77;6.63;;;;;;;;;;6206703;28;20042;-79
2021/11/26 10:08:35;;;;;;;14.48;6.95;;;;;;;;;;6212974;28;20041;-79
2021/11/26 10:12:02;;;;;;;13.95;7.00;;;;;;;;;;6211264;28;20729;-80
2021/11/26 10:15:05;;;;;;;18.02;6.10;;;;;;;;;;6207459;28;20049;-80
2021/11/26 10:18:28;;;;;;;15.85;6.38;;;;;;;;;;6203197;28;20042;-79
2021/11/26 10:21:29;;;;;;;12.32;6.28;;;;;;;;;;6212620;28;20133;-80
2021/11/26 10:24:31;;;;;;;12.45;5.55;;;;;;;;;;6211427;28;20129;-78
2021/11/26 10:27:46;;;;;;;17.25;6.47;;;;;;;;;;6207559;28;20054;-79
2021/11/26 10:30:49;;;;;;;15.40;6.53;;;;;;;;;;6222686;28;20196;-79
2021/11/26 10:33:56;;;;;;;12.40;5.63;;;;;;;;;;6215229;28;20061;-80
2021/11/26 10:36:58;;;;;;;13.88;6.55;;;;;;;;;;6212922;28;20046;-80
2021/11/26 10:40:00;;;;;;;14.75;6.13;;;;;;;;;;6211550;28;20046;-80
2021/11/26 10:43:05;;;;;;;13.07;5.90;;;;;;;;;;6217500;28;20042;-80
2021/11/26 10:52:47;;;;;;;13.95;5.80;;;;;;;;;;6204296;28;20062;-84
2021/11/26 10:59:05;;;;;;;9.07;3.72;;;;;;;;;;6208832;28;20046;-80
2021/11/26 11:02:07;;;;;;;10.18;4.70;;;;;;;;;;6202029;28;20259;-79
2021/11/26 11:05:21;;;;;;;10.93;4.90;;;;;;;;;;6191931;28;20046;-79
2021/11/26 11:08:23;;;;;;;;;;;;;;;;;;6206010;28;20758;-79
2021/11/26 11:11:25;;;;;;;12.52;5.18;;;;;;;;;;6218625;28;19931;-79
2021/11/26 11:14:27;;;;;;;8.77;4.03;;;;;;;;;;6191696;28;20149;-80
2021/11/26 11:17:30;;;;;;;10.55;4.70;;;;;;;;;;6208130;28;20061;-79
2021/11/26 11:20:34;;;;;;;11.30;4.77;;;;;;;;;;6192573;28;20121;-82
2021/11/26 11:23:38;;;;;;;9.70;4.40;;;;;;;;;;6190722;28;20456;-80
2021/11/26 11:26:45;;;;;;;12.13;4.88;;;;;;;;;;6207310;28;20098;-80
2021/11/26 11:29:46;;;;;;;12.77;4.97;;;;;;;;;;6206914;28;20053;-80
2021/11/26 11:32:49;;;;;;;11.18;5.43;;;;;;;;;;6215692;28;20436;-80
2021/11/26 11:35:52;;;;;;;13.38;5.68;;;;;;;;;;6215572;28;20114;-82
2021/11/26 11:38:58;;;;;;;;;;;;;;;;;;6210769;28;20109;-81
2021/11/26 11:42:00;;;;;;;11.45;4.95;;;;;;;;;;6203234;28;20436;-80
2021/11/26 11:45:10;;;;;;;9.85;4.65;;;;;;;;;;6206931;28;20046;-80
2021/11/26 11:48:22;;;;;;;10.48;5.32;;;;;;;;;;6191618;28;20050;-81
2021/11/26 11:51:27;;;;;;;12.95;5.63;;;;;;;;;;6196403;28;20133;-80
2021/11/26 11:54:46;;;;;;;12.65;5.57;;;;;;;;;;6202493;28;20120;-81
2021/11/26 11:57:49;;;;;;;13.00;6.00;;;;;;;;;;6203705;28;20081;-82
2021/11/26 12:00:53;;;;;;;14.20;5.40;;;;;;;;;;6189168;28;20181;-82
2021/11/26 12:03:58;;;;;;;12.43;5.78;;;;;;;;;;6232497;28;20053;-81
2021/11/26 12:06:59;;;;;;;15.75;6.45;;;;;;;;;;6204300;28;20189;-81
2021/11/26 12:10:03;;;;;;;13.55;5.78;;;;;;;;;;6188448;28;20046;-82
2021/11/26 12:13:05;;;;;;;13.43;5.68;;;;;;;;;;6208447;28;20042;-82
2021/11/26 12:16:07;;;;;;;14.88;7.13;;;;;;;;;;6213400;28;20050;-82
2021/11/26 12:19:16;;;;;;;14.00;5.95;;;;;;;;;;6213121;28;20073;-83
2021/11/26 12:22:22;;;;;;;19.27;8.27;;;;;;;;;;6207699;28;20184;-82
2021/11/26 12:26:11;;;;;;;23.92;9.40;;;;;;;;;;6212506;28;20491;-81
2021/11/26 12:28:59;;;;;;;14.88;7.30;;;;;;;;;;6209228;28;20414;-83
2021/11/26 12:32:14;;;;;;;15.32;6.78;;;;;;;;;;6214532;28;20041;-81
2021/11/26 12:35:17;;;;;;;14.15;6.15;;;;;;;;;;6213656;28;20173;-79
2021/11/26 12:38:19;;;;;;;18.85;8.00;;;;;;;;;;6208491;28;20042;-80
2021/11/26 12:41:32;;;;;;;20.80;7.40;;;;;;;;;;6188502;28;20056;-79
2021/11/26 12:44:34;;;;;;;19.73;7.75;;;;;;;;;;6179569;28;20068;-79
2021/11/26 12:47:38;;;;;;;20.40;7.85;;;;;;;;;;6212894;28;20074;-79
2021/11/26 12:54:04;;;;;;;22.00;8.93;;;;;;;;;;6201732;28;20739;-81
2021/11/26 12:57:15;;;;;;;19.48;7.32;;;;;;;;;;6205422;28;20177;-79
2021/11/26 13:00:17;;;;;;;32.47;20.92;;;;;;;;;;6204045;28;20050;-78
2021/11/26 13:03:19;;;;;;;18.92;8.25;;;;;;;;;;6200541;28;20133;-79
2021/11/26 13:06:31;;;;;;;21.02;8.50;;;;;;;;;;6208721;28;20078;-78
2021/11/26 13:10:00;;;;;;;19.63;6.75;;;;;;;;;;6202079;28;20093;-82
2021/11/26 13:13:02;;;;;;;20.70;7.20;;;;;;;;;;6188325;28;20092;-79
2021/11/26 13:16:06;;;;;;;20.00;7.85;;;;;;;;;;6192809;28;20041;-79
2021/11/26 13:19:18;;;;;;;16.15;7.20;;;;;;;;;;6210052;28;20057;-80
2021/11/26 13:22:20;;;;;;;18.00;8.13;;;;;;;;;;6221376;28;20046;-79
2021/11/26 13:25:24;;;;;;;16.95;6.90;;;;;;;;;;6193548;28;20127;-80
2021/11/26 13:28:35;;;;;;;20.17;8.07;;;;;;;;;;6197253;28;20069;-81
2021/11/26 13:31:55;;;;;;;16.20;7.30;;;;;;;;;;6198108;28;20042;-78
2021/11/26 13:39:31;;;;;;;12.77;5.55;;;;;;;;;;6278617;28;20641;-80
2021/11/26 13:42:34;;;;;;;14.50;6.22;;;;;;;;;;6258878;28;20719;-80
2021/11/26 13:45:42;;;;;;;14.60;6.95;;;;;;;;;;6262213;28;20056;-80
2021/11/26 13:48:44;;;;;;;18.05;7.00;;;;;;;;;;6278170;28;20033;-79
2021/11/26 13:51:59;;;;;;;16.70;7.85;;;;;;;;;;6263125;28;20057;-79
2021/11/26 13:55:21;;;;;;;16.35;6.30;;;;;;;;;;6250571;28;20240;-80
2021/11/26 13:58:24;;;;;;;14.40;6.28;;;;;;;;;;6266598;28;20048;-81
2021/11/26 14:01:35;;;;;;;13.05;6.47;;;;;;;;;;6250877;28;20057;-81
2021/11/26 14:04:39;;;;;;;17.05;7.20;;;;;;;;;;6262608;28;20045;-82
2021/11/26 14:07:41;;;;;;;17.83;6.85;;;;;;;;;;6228854;28;20049;-82
2021/11/26 14:10:54;;;;;;;14.50;6.60;;;;;;;;;;6259514;28;20514;-80
2021/11/26 14:13:56;;;;;;;12.25;5.88;;;;;;;;;;6258883;28;20156;-83
2021/11/26 14:17:01;;;;;;;15.33;6.43;;;;;;;;;;6259301;28;20045;-83
2021/11/26 14:20:06;;;;;;;15.38;6.93;;;;;;;;;;6236429;28;20049;-81
2021/11/26 14:23:10;;;;;;;13.52;6.63;;;;;;;;;;6258431;28;20073;-81
2021/11/26 14:26:12;;;;;;;16.42;7.22;;;;;;;;;;6243307;28;20041;-83
2021/11/26 14:29:14;;;;;;;15.02;6.60;;;;;;;;;;6238768;28;20041;-83
2021/11/26 14:32:16;;;;;;;14.77;6.78;;;;;;;;;;6259343;28;20052;-80
2021/11/26 14:35:20;;;;;;;12.13;5.18;;;;;;;;;;6218817;28;20045;-79
2021/11/26 14:38:23;;;;;;;13.63;6.13;;;;;;;;;;6242392;28;20045;-79
2021/11/26 14:41:25;;;;;;;9.43;5.43;;;;;;;;;;6241607;28;20045;-80
2021/11/26 14:44:40;;;;;;;17.02;6.70;;;;;;;;;;6242820;28;20056;-81
2021/11/26 14:47:55;;;;;;;13.32;5.40;;;;;;;;;;6261297;28;20048;-81
2021/11/26 14:51:09;;;;;;;14.50;5.45;;;;;;;;;;6240873;28;20128;-81
2021/11/26 14:54:14;;;;;;;13.32;5.35;;;;;;;;;;6242971;28;20188;-82
2021/11/26 14:57:16;;;;;;;11.02;5.00;;;;;;;;;;6243318;28;20041;-82
2021/11/26 15:00:18;;;;;;;12.80;4.72;;;;;;;;;;6240762;28;20041;-80
2021/11/26 15:03:22;;;;;;;14.20;6.25;;;;;;;;;;6242424;28;20041;-82
2021/11/26 15:06:23;;;;;;;11.00;5.00;;;;;;;;;;6246361;28;20467;-80
2021/11/26 15:09:25;;;;;;;13.57;5.40;;;;;;;;;;6242594;28;20045;-81
2021/11/26 15:12:27;;;;;;;15.68;5.85;;;;;;;;;;6260712;28;20499;-81
2021/11/26 15:15:28;;;;;;;9.88;4.72;;;;;;;;;;6244299;28;20057;-80
2021/11/26 15:18:30;;;;;;;11.50;5.28;;;;;;;;;;6242232;28;20083;-80
2021/11/26 15:21:32;;;;;;;15.77;7.00;;;;;;;;;;6228359;28;20041;-82
2021/11/26 15:24:34;;;;;;;15.70;6.50;;;;;;;;;;6235482;28;20053;-79
2021/11/26 15:27:37;;;;;;;15.20;7.45;;;;;;;;;;6235925;28;20420;-80
2021/11/26 15:30:38;;;;;;;32.53;11.30;;;;;;;;;;6209585;28;20471;-81
2021/11/26 15:33:40;;;;;;;27.73;11.10;;;;;;;;;;6252221;28;20120;-80
2021/11/26 15:36:42;;;;;;;29.67;9.80;;;;;;;;;;6241511;28;20064;-79
2021/11/26 15:39:44;;;;;;;30.63;10.77;;;;;;;;;;6249623;28;20055;-78
2021/11/26 15:42:45;;;;;;;42.00;14.82;;;;;;;;;;6244059;28;20045;-78
2021/11/26 15:45:47;;;;;;;12.93;5.32;;;;;;;;;;6247267;28;20037;-81
2021/11/26 15:48:49;;;;;;;13.57;6.20;;;;;;;;;;6258770;28;20045;-80
2021/11/26 15:51:51;;;;;;;24.42;8.43;;;;;;;;;;6238419;28;20049;-79
2021/11/26 15:54:52;;;;;;;8.18;4.75;;;;;;;;;;6255111;28;20060;-79
2021/11/26 15:57:54;;;;;;;11.07;6.13;;;;;;;;;;6239013;28;20046;-80
2021/11/26 16:00:56;;;;;;;10.02;4.90;;;;;;;;;;6197016;28;20058;-81
2021/11/26 16:03:58;;;;;;;15.93;7.68;;;;;;;;;;6219527;28;20042;-82
2021/11/26 16:07:00;;;;;;;16.08;6.28;;;;;;;;;;6224092;28;20046;-81
2021/11/26 16:10:05;;;;;;;11.52;5.93;;;;;;;;;;6249784;28;20041;-80
2021/11/26 16:13:08;;;;;;;13.48;6.22;;;;;;;;;;6228870;28;20053;-81
2021/11/26 16:16:09;;;;;;;17.27;6.68;;;;;;;;;;6245999;28;20053;-81
2021/11/26 16:19:11;;;;;;;16.90;6.28;;;;;;;;;;6248786;28;20037;-81
2021/11/26 16:22:14;;;;;;;16.45;7.50;;;;;;;;;;6244529;28;20087;-81
2021/11/26 16:25:17;;;;;;;18.10;6.55;;;;;;;;;;6244236;28;20077;-81
2021/11/26 16:28:21;;;;;;;12.35;6.43;;;;;;;;;;6220882;28;20052;-80
2021/11/26 16:31:35;;;;;;;13.15;6.03;;;;;;;;;;6192464;28;20610;-79
2021/11/26 16:34:40;;;;;;;12.93;4.68;;;;;;;;;;6215245;28;20112;-80
2021/11/26 16:37:42;;;;;;;21.10;8.52;;;;;;;;;;6238510;28;20045;-79
2021/11/26 16:40:44;;;;;;;14.68;8.05;;;;;;;;;;6241390;28;20053;-80
2021/11/26 16:43:46;;;;;;;15.48;8.25;;;;;;;;;;6225094;28;20054;-80
2021/11/26 16:47:09;;;;;;;11.00;6.10;;;;;;;;;;6251749;28;20160;-82
2021/11/26 16:50:11;;;;;;;15.23;7.10;;;;;;;;;;6241612;28;20049;-80
2021/11/26 16:53:13;;;;;;;11.85;6.15;;;;;;;;;;6240004;28;20132;-79
2021/11/26 16:56:14;;;;;;;16.13;7.22;;;;;;;;;;6240377;28;20050;-78
2021/11/26 16:59:17;;;;;;;14.60;7.47;;;;;;;;;;6217634;28;20101;-79
2021/11/26 17:02:19;;;;;;;15.77;7.22;;;;;;;;;;6216709;28;20479;-80
2021/11/26 17:05:21;;;;;;;18.70;10.93;;;;;;;;;;6191952;28;20073;-79
2021/11/26 17:08:23;;;;;;;19.52;10.18;;;;;;;;;;6242488;28;20124;-79
2021/11/26 17:11:25;;;;;;;19.45;10.00;;;;;;;;;;6221935;28;20103;-80
2021/11/26 17:14:27;;;;;;;16.70;7.70;;;;;;;;;;6242248;28;20045;-78
2021/11/26 17:17:29;;;;;;;15.82;8.00;;;;;;;;;;6239814;28;20048;-79
2021/11/26 17:20:31;;;;;;;21.67;8.18;;;;;;;;;;6200088;28;20039;-80
2021/11/26 17:23:33;;;;;;;12.07;6.55;;;;;;;;;;6209277;28;20380;-80
2021/11/26 17:26:35;;;;;;;14.10;6.40;;;;;;;;;;6245458;28;20179;-79
2021/11/26 17:29:36;;;;;;;14.20;6.35;;;;;;;;;;6219888;28;20103;-79
2021/11/26 17:32:38;;;;;;;14.57;7.82;;;;;;;;;;6239440;28;20041;-78
2021/11/26 17:35:40;;;;;;;13.65;6.40;;;;;;;;;;6237033;28;20095;-79
2021/11/26 17:38:42;;;;;;;15.30;6.72;;;;;;;;;;6237604;28;20053;-80
2021/11/26 17:41:43;;;;;;;13.27;6.40;;;;;;;;;;6236623;28;20075;-79
2021/11/26 17:44:45;;;;;;;14.02;7.07;;;;;;;;;;6213079;28;20054;-78
2021/11/26 17:47:47;;;;;;;13.40;7.07;;;;;;;;;;6245350;28;20132;-79
2021/11/26 17:50:48;;;;;;;16.30;7.75;;;;;;;;;;6237283;28;20546;-79
2021/11/26 17:53:51;;;;;;;15.65;9.23;;;;;;;;;;6242149;28;20138;-81
2021/11/26 17:56:54;;;;;;;16.52;7.43;;;;;;;;;;6242083;28;20100;-80
2021/11/26 17:59:56;;;;;;;13.80;6.80;;;;;;;;;;6241468;28;20046;-81
2021/11/26 18:02:58;;;;;;;13.32;7.15;;;;;;;;;;6237944;28;20072;-79
2021/11/26 18:06:06;;;;;;;14.18;6.40;;;;;;;;;;6242703;28;20046;-80
2021/11/26 18:09:10;;;;;;;11.88;5.72;;;;;;;;;;6265980;28;20052;-79
2021/11/26 18:12:23;;;;;;;13.88;6.97;;;;;;;;;;6263836;28;20096;-80
2021/11/26 18:15:25;;;;;;;14.98;7.53;;;;;;;;;;6262910;28;20040;-79
2021/11/26 18:18:27;;;;;;;19.80;9.45;;;;;;;;;;6266496;28;20067;-79